Time;durP1;ratioP1;P1;durP2;ratioP2;P2;SDS_P1;SDS_P2;PMS_P1;PMS_P2;Temp;Humidity;BMP_temperature;BMP_pressure;BME280_temperature;BME280_humidity;BME280_pressure;Samples;Min_cycle;Max_cycle;Signal;HPM_P1;HPM_P2
2023/08/06 00:00:52;;;;;;;6.63;4.15;;;;;;;14.19;100.00;100175.59;5038921;28;20479;-77
2023/08/06 00:03:17;;;;;;;4.45;4.00;;;;;;;14.21;100.00;100180.84;5038503;28;20064;-76
2023/08/06 00:05:43;;;;;;;4.22;3.83;;;;;;;14.27;100.00;100177.69;5032565;28;20437;-75
2023/08/06 00:08:08;;;;;;;6.35;4.18;;;;;;;14.26;100.00;100175.16;5038639;28;20566;-76
2023/08/06 00:10:34;;;;;;;4.70;3.40;;;;;;;14.28;100.00;100184.75;5035402;28;20483;-75
2023/08/06 00:12:59;;;;;;;4.68;3.58;;;;;;;14.31;100.00;100179.16;5035742;28;20025;-75
2023/08/06 00:15:25;;;;;;;5.38;3.50;;;;;;;14.36;100.00;100182.34;5037120;28;20518;-76
2023/08/06 00:17:50;;;;;;;3.55;3.25;;;;;;;14.38;100.00;100175.06;5040263;28;20029;-75
2023/08/06 00:20:15;;;;;;;4.60;3.00;;;;;;;14.37;100.00;100181.38;5044942;28;20368;-74
2023/08/06 00:22:41;;;;;;;4.05;3.35;;;;;;;14.36;100.00;100170.78;5045403;28;20044;-75
2023/08/06 00:25:06;;;;;;;4.25;3.40;;;;;;;14.36;100.00;100170.78;5042394;28;20072;-75
2023/08/06 00:27:32;;;;;;;5.40;3.60;;;;;;;14.35;100.00;100172.59;5039189;28;20035;-75
2023/08/06 00:29:58;;;;;;;4.85;3.30;;;;;;;14.36;100.00;100168.94;5042683;28;20124;-77
2023/08/06 00:32:23;;;;;;;5.30;3.50;;;;;;;14.36;100.00;100163.59;5041974;28;20055;-75
2023/08/06 00:34:51;;;;;;;4.10;3.15;;;;;;;14.37;100.00;100167.13;5043329;28;20297;-75
2023/08/06 00:37:17;;;;;;;6.68;3.90;;;;;;;14.33;100.00;100171.84;5046087;28;20025;-76
2023/08/06 00:39:46;;;;;;;3.95;3.20;;;;;;;14.33;100.00;100166.50;5042737;28;20036;-76
2023/08/06 00:42:11;;;;;;;4.68;3.60;;;;;;;14.30;100.00;100166.75;5043274;28;20029;-75
2023/08/06 00:44:37;;;;;;;5.28;3.20;;;;;;;14.27;100.00;100161.63;5042787;28;20071;-76
2023/08/06 00:47:03;;;;;;;6.78;3.67;;;;;;;14.28;100.00;100157.13;5040166;28;20040;-75
2023/08/06 00:49:29;;;;;;;3.88;3.47;;;;;;;14.27;100.00;100155.44;5036726;28;20562;-76
2023/08/06 00:51:54;;;;;;;5.20;3.47;;;;;;;14.25;100.00;100158.22;5040327;28;20533;-76
2023/08/06 00:54:20;;;;;;;3.83;3.53;;;;;;;14.26;100.00;100151.06;5038421;28;20027;-76
2023/08/06 00:56:46;;;;;;;5.30;3.95;;;;;;;14.28;100.00;100155.31;5045000;28;20025;-75
2023/08/06 00:59:12;;;;;;;4.60;3.30;;;;;;;14.23;100.00;100148.63;5044256;28;20029;-76
2023/08/06 01:01:37;;;;;;;5.55;3.60;;;;;;;14.27;100.00;100155.44;5043881;28;20529;-76
2023/08/06 01:04:03;;;;;;;4.45;3.10;;;;;;;14.29;100.00;100154.31;5037572;28;20346;-76
2023/08/06 01:06:48;;;;;;;5.75;3.10;;;;;;;14.25;100.00;100158.22;5042266;28;20032;-76
2023/08/06 01:09:24;;;;;;;5.03;3.50;;;;;;;14.24;100.00;100156.50;5043048;28;20046;-76
2023/08/06 01:12:08;;;;;;;4.65;3.38;;;;;;;14.17;100.00;100157.94;5042757;28;20082;-76
2023/08/06 01:14:33;;;;;;;;;;;;;;;14.24;100.00;100151.16;5038330;28;20040;-75
2023/08/06 01:16:58;;;;;;;3.88;3.03;;;;;;;14.12;100.00;100141.41;5042435;28;20420;-75
2023/08/06 01:19:24;;;;;;;5.65;2.90;;;;;;;14.03;100.00;100147.47;5042943;28;20029;-75
2023/08/06 01:21:49;;;;;;;4.93;3.40;;;;;;;14.02;100.00;100148.44;5043024;28;20025;-75
2023/08/06 01:24:15;;;;;;;4.50;3.28;;;;;;;13.97;100.00;100142.59;5046705;28;20028;-75
2023/08/06 01:27:13;;;;;;;4.57;3.25;;;;;;;13.91;100.00;100152.75;5044326;28;20028;-76
2023/08/06 01:29:44;;;;;;;5.68;2.92;;;;;;;13.84;100.00;100148.88;5032101;28;20404;-75
2023/08/06 01:32:11;;;;;;;8.10;3.15;;;;;;;13.83;100.00;100148.97;5036818;28;20021;-75
2023/08/06 01:34:40;;;;;;;4.60;2.90;;;;;;;13.76;100.00;100145.91;5039288;28;20039;-75
2023/08/06 01:37:06;;;;;;;4.00;2.80;;;;;;;13.79;100.00;100148.34;5038352;28;20064;-75
2023/08/06 01:39:34;;;;;;;6.60;3.20;;;;;;;13.81;100.00;100150.91;5039308;28;20040;-74
2023/08/06 01:42:00;;;;;;;4.65;3.25;;;;;;;13.84;100.00;100148.03;5037253;28;20021;-75
2023/08/06 01:44:25;;;;;;;4.05;2.78;;;;;;;13.92;100.00;100148.28;5037966;28;20036;-76
2023/08/06 01:46:51;;;;;;;4.72;3.00;;;;;;;13.94;100.00;100154.38;5040703;28;20033;-75
2023/08/06 01:49:16;;;;;;;4.85;2.90;;;;;;;14.00;100.00;100150.34;5049506;28;20041;-75
2023/08/06 01:51:41;;;;;;;2.90;2.60;;;;;;;14.00;100.00;100147.69;5040033;28;20132;-75
2023/08/06 01:54:07;;;;;;;6.75;3.03;;;;;;;14.01;100.00;100142.25;5041961;28;20051;-75
2023/08/06 01:56:32;;;;;;;3.97;2.60;;;;;;;14.01;100.00;100149.41;5043720;28;20025;-75
2023/08/06 01:58:58;;;;;;;3.53;2.40;;;;;;;14.01;100.00;100141.38;5038315;28;20445;-75
2023/08/06 02:01:23;;;;;;;5.78;2.60;;;;;;;14.03;100.00;100150.13;5057040;28;20138;-74
2023/08/06 02:03:48;;;;;;;4.25;2.60;;;;;;;14.00;100.00;100145.00;5045727;28;20100;-74
2023/08/06 02:06:14;;;;;;;3.63;2.30;;;;;;;14.01;100.00;100144.91;5045394;28;20506;-74
2023/08/06 02:08:39;;;;;;;5.43;2.78;;;;;;;14.01;100.00;100146.75;5055568;28;20467;-74
2023/08/06 02:11:05;;;;;;;4.43;2.30;;;;;;;14.02;100.00;100146.59;5042638;28;20422;-74
2023/08/06 02:13:30;;;;;;;3.38;2.40;;;;;;;14.01;100.00;100144.91;5045788;28;20481;-74
2023/08/06 02:15:56;;;;;;;4.00;2.50;;;;;;;13.95;100.00;100135.50;5042898;28;20398;-74
2023/08/06 02:18:21;;;;;;;4.82;2.60;;;;;;;14.04;100.00;100144.66;5035915;28;20040;-75
2023/08/06 02:20:57;;;;;;;3.97;2.47;;;;;;;14.04;100.00;100152.69;5043038;28;20072;-75
2023/08/06 02:23:23;;;;;;;4.22;2.20;;;;;;;14.08;100.00;100150.63;5037688;28;20021;-75
2023/08/06 02:25:48;;;;;;;4.05;2.25;;;;;;;14.06;100.00;100142.72;5042535;28;20025;-76
2023/08/06 02:28:13;;;;;;;2.92;2.50;;;;;;;14.04;100.00;100141.97;5037382;28;20509;-76
2023/08/06 02:30:39;;;;;;;3.65;2.28;;;;;;;14.07;100.00;100139.06;5038503;28;20525;-75
2023/08/06 02:33:04;;;;;;;5.85;2.90;;;;;;;14.07;100.00;100144.44;5041548;28;20025;-74
2023/08/06 02:35:30;;;;;;;6.55;3.00;;;;;;;14.10;100.00;100136.16;5039672;28;20308;-74
2023/08/06 02:37:55;;;;;;;5.00;2.92;;;;;;;14.09;100.00;100137.16;5040402;28;20476;-74
2023/08/06 02:40:20;;;;;;;4.97;3.17;;;;;;;14.09;100.00;100130.94;5037136;28;20024;-74
2023/08/06 02:42:46;;;;;;;4.60;3.20;;;;;;;14.08;100.00;100131.91;5036129;28;20344;-74
2023/08/06 02:45:11;;;;;;;6.15;3.47;;;;;;;14.02;100.00;100125.19;5033608;28;20044;-75
2023/08/06 02:47:36;;;;;;;5.80;3.42;;;;;;;14.06;100.00;100132.03;5034679;28;20045;-74
2023/08/06 02:50:02;;;;;;;6.10;3.33;;;;;;;14.05;100.00;100126.81;5053661;28;20487;-75
2023/08/06 02:52:27;;;;;;;4.35;3.63;;;;;;;14.07;100.00;100132.88;5035872;28;20036;-75
2023/08/06 02:54:52;;;;;;;4.43;3.22;;;;;;;14.10;100.00;100135.31;5039808;28;20090;-75
2023/08/06 02:57:18;;;;;;;3.70;3.30;;;;;;;14.07;100.00;100127.53;5036889;28;20296;-74
2023/08/06 02:59:43;;;;;;;5.40;4.00;;;;;;;14.01;100.00;100122.66;5040835;28;20519;-75
2023/08/06 03:02:08;;;;;;;4.97;3.72;;;;;;;14.06;100.00;100125.81;5028817;28;20063;-75
2023/08/06 03:04:34;;;;;;;4.22;3.83;;;;;;;14.00;100.00;100131.63;5038424;28;20518;-75
2023/08/06 03:06:59;;;;;;;5.78;4.20;;;;;;;14.05;100.00;100124.97;5039421;28;20017;-75
2023/08/06 03:09:24;;;;;;;5.28;3.55;;;;;;;14.03;100.00;100124.22;5037528;28;20255;-74
2023/08/06 03:11:50;;;;;;;5.32;4.00;;;;;;;14.07;100.00;100123.03;5042383;28;20292;-75
2023/08/06 03:14:15;;;;;;;4.75;4.20;;;;;;;14.06;100.00;100123.16;5045835;28;20032;-74
2023/08/06 03:16:40;;;;;;;4.90;3.70;;;;;;;14.06;100.00;100120.47;5040429;28;20463;-74
2023/08/06 03:19:06;;;;;;;5.88;4.13;;;;;;;14.04;100.00;100125.94;5044441;28;20407;-74
2023/08/06 03:21:31;;;;;;;6.60;4.93;;;;;;;14.04;100.00;100117.91;5038135;28;20483;-74
2023/08/06 03:23:56;;;;;;;5.63;4.60;;;;;;;14.00;100.00;100119.09;5042126;28;20017;-74
2023/08/06 03:26:22;;;;;;;5.20;4.43;;;;;;;13.97;100.00;100123.84;5040243;28;20051;-74
2023/08/06 03:28:48;;;;;;;5.28;4.63;;;;;;;13.98;100.00;100129.09;5039823;28;20119;-74
2023/08/06 03:31:13;;;;;;;6.18;5.25;;;;;;;14.00;100.00;100126.28;5036992;28;20028;-74
2023/08/06 03:33:38;;;;;;;5.05;4.55;;;;;;;13.92;100.00;100125.06;5040565;28;20056;-74
2023/08/06 03:36:04;;;;;;;6.13;4.60;;;;;;;13.97;100.00;100126.53;5041728;28;20108;-74
2023/08/06 03:38:29;;;;;;;6.10;5.05;;;;;;;13.96;100.00;100122.97;5036547;28;20063;-74
2023/08/06 03:40:54;;;;;;;5.25;4.75;;;;;;;13.97;100.00;100130.06;5040364;28;20573;-74
2023/08/06 03:43:20;;;;;;;5.82;5.15;;;;;;;13.97;100.00;100126.53;5033712;28;20358;-74
2023/08/06 03:45:47;;;;;;;5.70;5.13;;;;;;;13.94;100.00;100132.97;5042343;28;20091;-74
2023/08/06 03:48:13;;;;;;;5.97;5.13;;;;;;;13.93;100.00;100126.75;5033294;28;20128;-74
2023/08/06 03:50:38;;;;;;;6.18;5.57;;;;;;;13.89;100.00;100124.44;5033620;28;20462;-74
2023/08/06 03:53:04;;;;;;;5.90;5.30;;;;;;;13.90;100.00;100128.81;5038991;28;20025;-75
2023/08/06 03:55:29;;;;;;;6.22;5.53;;;;;;;13.89;100.00;100130.63;5041553;28;20099;-75
2023/08/06 03:57:54;;;;;;;6.85;5.32;;;;;;;13.88;100.00;100131.63;5039910;28;20025;-75
2023/08/06 04:00:20;;;;;;;7.32;5.30;;;;;;;13.87;100.00;100129.03;5037725;28;20025;-75
2023/08/06 04:02:45;;;;;;;5.50;4.85;;;;;;;13.84;100.00;100132.81;5032440;28;20021;-75
2023/08/06 04:05:11;;;;;;;5.80;5.00;;;;;;;13.88;100.00;100138.78;5039137;28;20033;-75
2023/08/06 04:07:37;;;;;;;6.18;5.20;;;;;;;13.80;100.00;100136.69;5038620;28;20033;-75
2023/08/06 04:10:04;;;;;;;6.40;5.35;;;;;;;13.80;100.00;100141.19;5037241;28;20033;-75
2023/08/06 04:12:31;;;;;;;6.93;4.65;;;;;;;13.79;100.00;100140.31;5043868;28;20037;-75
2023/08/06 04:14:57;;;;;;;6.35;5.20;;;;;;;13.78;100.00;100148.47;5039939;28;20029;-75
2023/08/06 04:17:23;;;;;;;5.75;5.10;;;;;;;13.76;100.00;100151.25;5037541;28;20094;-75
2023/08/06 04:19:53;;;;;;;7.07;5.22;;;;;;;13.77;100.00;100152.13;5036706;28;20483;-75
2023/08/06 04:22:20;;;;;;;5.88;5.32;;;;;;;13.74;100.00;100145.16;5038623;28;20025;-75
2023/08/06 04:24:46;;;;;;;7.25;5.10;;;;;;;13.76;100.00;100156.63;5034398;28;20040;-75
2023/08/06 04:27:12;;;;;;;5.50;5.00;;;;;;;13.69;100.00;100153.53;5031637;28;20029;-75
2023/08/06 04:29:38;;;;;;;7.25;5.63;;;;;;;13.70;100.00;100152.56;5037931;28;20118;-75
2023/08/06 04:32:05;;;;;;;6.03;5.20;;;;;;;13.68;100.00;100159.00;5030842;28;20048;-76
2023/08/06 04:34:31;;;;;;;6.05;5.40;;;;;;;13.67;100.00;100157.31;5032763;28;20106;-75
2023/08/06 04:36:56;;;;;;;6.65;5.53;;;;;;;13.64;100.00;100158.38;5036471;28;20021;-75
2023/08/06 04:39:21;;;;;;;6.15;5.43;;;;;;;13.67;100.00;100159.97;5038350;28;20114;-75
2023/08/06 04:41:47;;;;;;;7.35;5.63;;;;;;;13.64;100.00;100169.06;5040269;28;20036;-76
2023/08/06 04:44:12;;;;;;;8.77;5.47;;;;;;;13.70;100.00;100165.06;5040431;28;20387;-75
2023/08/06 04:46:37;;;;;;;7.47;6.15;;;;;;;13.64;100.00;100161.06;5052461;28;20032;-76
2023/08/06 04:49:03;;;;;;;6.43;5.80;;;;;;;13.71;100.00;100169.47;5038330;28;20283;-75
2023/08/06 04:51:28;;;;;;;9.13;5.78;;;;;;;13.76;100.00;100166.47;5041115;28;20027;-75
2023/08/06 04:53:54;;;;;;;6.20;5.60;;;;;;;13.80;100.00;100175.97;5036212;28;20082;-75
2023/08/06 04:56:19;;;;;;;6.35;5.82;;;;;;;13.78;100.00;100170.72;5045159;28;20273;-75
2023/08/06 04:58:44;;;;;;;5.95;5.35;;;;;;;13.84;100.00;100175.63;5039441;28;20017;-76
2023/08/06 05:01:10;;;;;;;6.28;5.68;;;;;;;13.88;100.00;100176.25;5035507;28;20553;-75
2023/08/06 05:03:35;;;;;;;7.30;6.13;;;;;;;13.83;100.00;100173.03;5040504;28;20051;-75
2023/08/06 05:06:00;;;;;;;7.00;5.78;;;;;;;13.85;100.00;100177.31;5043513;28;20068;-75
2023/08/06 05:08:26;;;;;;;7.88;5.85;;;;;;;13.95;100.00;100185.50;5034979;28;20120;-76
2023/08/06 05:10:51;;;;;;;9.40;6.03;;;;;;;14.00;100.00;100185.13;5038620;28;20033;-76
2023/08/06 05:13:16;;;;;;;6.38;5.78;;;;;;;13.95;100.00;100183.66;5042971;28;20104;-76
2023/08/06 05:15:42;;;;;;;7.93;6.45;;;;;;;14.00;100.00;100177.13;5038326;28;20107;-75
2023/08/06 05:18:08;;;;;;;7.00;5.65;;;;;;;14.02;100.00;100183.22;5035832;28;20047;-75
2023/08/06 05:20:42;;;;;;;5.97;5.43;;;;;;;14.14;100.00;100191.16;5049634;28;20037;-75
2023/08/06 05:23:07;;;;;;;6.57;5.80;;;;;;;14.21;100.00;100186.19;5043261;28;20152;-76
2023/08/06 05:25:35;;;;;;;6.68;5.57;;;;;;;14.29;100.00;100186.44;5043297;28;20061;-76
2023/08/06 05:28:02;;;;;;;6.55;5.95;;;;;;;14.40;100.00;100194.53;5038368;28;20143;-76
2023/08/06 05:30:27;;;;;;;7.88;5.97;;;;;;;14.43;100.00;100196.13;5044552;28;20497;-77
2023/08/06 05:32:53;;;;;;;6.20;5.60;;;;;;;14.52;100.00;100198.13;5042350;28;20021;-76
2023/08/06 05:35:18;;;;;;;6.30;5.45;;;;;;;14.51;100.00;100198.25;5051337;28;20037;-76
2023/08/06 05:37:44;;;;;;;5.97;5.38;;;;;;;14.57;100.00;100206.63;5043281;28;20025;-77
2023/08/06 05:40:09;;;;;;;6.15;5.55;;;;;;;14.66;100.00;100210.41;5044360;28;20021;-77
2023/08/06 05:42:34;;;;;;;8.85;6.45;;;;;;;14.74;100.00;100209.81;5041052;28;20514;-79
2023/08/06 05:45:00;;;;;;;6.43;5.75;;;;;;;14.81;100.00;100209.22;5042273;28;20028;-76
2023/08/06 05:47:25;;;;;;;6.55;5.82;;;;;;;14.89;100.00;100220.19;5042940;28;20145;-77
2023/08/06 05:49:50;;;;;;;8.38;6.28;;;;;;;14.99;100.00;100227.50;5041210;28;20040;-76
2023/08/06 05:52:18;;;;;;;8.25;6.53;;;;;;;15.08;100.00;100224.09;5047135;28;20502;-75
2023/08/06 05:54:44;;;;;;;8.13;6.07;;;;;;;15.17;100.00;100231.41;5047503;28;20811;-76
2023/08/06 05:57:09;;;;;;;6.82;6.22;;;;;;;15.20;100.00;100226.66;5043604;28;20029;-76
2023/08/06 05:59:34;;;;;;;7.57;6.70;;;;;;;15.31;100.00;100233.00;5046813;28;20384;-77
2023/08/06 06:02:00;;;;;;;7.03;6.38;;;;;;;15.41;100.00;100240.16;5040340;28;20037;-77
2023/08/06 06:04:25;;;;;;;11.20;6.47;;;;;;;15.55;100.00;100247.09;5044435;28;20021;-77
2023/08/06 06:06:51;;;;;;;8.45;6.55;;;;;;;15.72;100.00;100250.25;5042109;28;20036;-77
2023/08/06 06:09:16;;;;;;;7.20;6.20;;;;;;;15.80;100.00;100246.00;5040733;28;20585;-76
2023/08/06 06:11:41;;;;;;;6.78;6.18;;;;;;;16.00;100.00;100251.53;5042531;28;20037;-76
2023/08/06 06:14:07;;;;;;;6.95;6.10;;;;;;;16.11;100.00;100256.88;5038734;28;20409;-77
2023/08/06 06:16:32;;;;;;;6.65;5.70;;;;;;;16.26;100.00;100252.91;5032955;28;20555;-78
2023/08/06 06:18:58;;;;;;;7.72;5.80;;;;;;;16.40;100.00;100260.66;5039863;28;20056;-77
2023/08/06 06:21:24;;;;;;;8.98;5.60;;;;;;;16.46;100.00;100255.72;5036850;28;20017;-77
2023/08/06 06:23:51;;;;;;;6.53;5.45;;;;;;;16.78;100.00;100261.94;5039938;28;20025;-77
2023/08/06 06:26:17;;;;;;;5.07;4.60;;;;;;;16.97;100.00;100263.91;5040656;28;20399;-76
2023/08/06 06:28:43;;;;;;;5.78;5.15;;;;;;;17.25;100.00;100266.84;5042473;28;20526;-76
2023/08/06 06:31:09;;;;;;;5.97;4.53;;;;;;;17.35;100.00;100273.97;5038209;28;20059;-77
2023/08/06 06:33:34;;;;;;;3.75;3.33;;;;;;;17.26;100.00;100273.91;5038866;28;20056;-76
2023/08/06 06:36:00;;;;;;;4.78;3.90;;;;;;;17.04;100.00;100286.56;5037981;28;20615;-76
2023/08/06 06:38:25;;;;;;;4.97;3.30;;;;;;;16.74;100.00;100298.09;5057399;28;20134;-76
2023/08/06 06:40:55;;;;;;;4.63;3.30;;;;;;;16.48;100.00;100297.59;5046303;28;20039;-74
2023/08/06 06:43:20;;;;;;;5.65;4.03;;;;;;;16.26;100.00;100303.94;5043983;28;20029;-73
2023/08/06 06:46:06;;;;;;;5.72;3.40;;;;;;;16.26;100.00;100309.31;5044121;28;20028;-72
2023/08/06 06:48:32;;;;;;;4.15;3.75;;;;;;;16.03;100.00;100294.22;5036625;28;20522;-74
2023/08/06 06:50:58;;;;;;;5.00;3.88;;;;;;;15.91;100.00;100302.28;5054454;28;20021;-72
2023/08/06 06:53:27;;;;;;;6.68;4.30;;;;;;;15.78;100.00;100301.59;5062663;28;20381;-71
2023/08/06 06:56:01;;;;;;;5.15;4.65;;;;;;;15.61;100.00;100304.75;5046611;28;20107;-72
2023/08/06 06:58:26;;;;;;;5.28;4.47;;;;;;;15.45;100.00;100303.28;5042297;28;20048;-71
2023/08/06 07:00:52;;;;;;;6.15;4.97;;;;;;;15.27;100.00;100306.59;5042214;28;20059;-71
2023/08/06 07:03:18;;;;;;;7.63;5.53;;;;;;;15.07;100.00;100311.69;5038099;28;20497;-70
2023/08/06 07:05:44;;;;;;;5.15;3.72;;;;;;;14.83;100.00;100313.59;5053779;28;20040;-71
2023/08/06 07:08:10;;;;;;;1.92;1.73;;;;;;;14.45;100.00;100342.28;5039898;28;20184;-72
2023/08/06 07:10:35;;;;;;;1.80;1.70;;;;;;;14.19;100.00;100325.50;5034482;28;20199;-70
2023/08/06 07:13:00;;;;;;;2.08;1.63;;;;;;;14.06;100.00;100332.72;5040197;28;20024;-76
2023/08/06 07:15:26;;;;;;;1.70;1.60;;;;;;;13.86;100.00;100327.97;5044241;28;20033;-77
2023/08/06 07:17:51;;;;;;;3.15;1.60;;;;;;;13.70;100.00;100328.22;5042971;28;20017;-81
2023/08/06 07:20:17;;;;;;;2.25;2.00;;;;;;;13.65;100.00;100343.75;5044425;28;20040;-75
2023/08/06 07:22:43;;;;;;;2.17;1.55;;;;;;;13.54;100.00;100333.81;5040686;28;20479;-76
2023/08/06 07:25:08;;;;;;;1.73;1.63;;;;;;;13.53;100.00;100357.97;5036350;28;20224;-72
2023/08/06 07:27:34;;;;;;;2.03;1.92;;;;;;;13.49;100.00;100356.50;5041926;28;20028;-73
2023/08/06 07:29:59;;;;;;;3.00;2.25;;;;;;;13.42;100.00;100353.41;5042133;28;20614;-73
2023/08/06 07:32:24;;;;;;;2.05;1.95;;;;;;;13.46;100.00;100365.59;5040592;28;20042;-73
2023/08/06 07:34:52;;;;;;;2.60;2.05;;;;;;;13.39;100.00;100373.19;5037817;28;20728;-72
2023/08/06 07:37:18;;;;;;;2.15;1.90;;;;;;;13.37;100.00;100368.91;5035469;28;20024;-73
2023/08/06 07:39:43;;;;;;;2.00;1.90;;;;;;;13.29;100.00;100374.78;5042135;28;20086;-72
2023/08/06 07:42:10;;;;;;;2.60;2.40;;;;;;;13.39;100.00;100380.34;5040112;28;20202;-73
2023/08/06 07:44:36;;;;;;;3.05;2.78;;;;;;;13.40;100.00;100390.94;5042527;28;20024;-73
2023/08/06 07:47:01;;;;;;;3.38;3.10;;;;;;;13.33;100.00;100392.31;5036795;28;20406;-74
2023/08/06 07:49:26;;;;;;;3.40;3.10;;;;;;;13.27;100.00;100405.25;5034391;28;20048;-73
2023/08/06 07:51:52;;;;;;;4.15;3.75;;;;;;;13.20;100.00;100399.44;5040918;28;20037;-74
2023/08/06 07:54:18;;;;;;;4.70;4.20;;;;;;;13.10;100.00;100401.88;5033630;28;20033;-73
2023/08/06 07:56:43;;;;;;;4.82;4.40;;;;;;;13.10;100.00;100398.38;5035477;28;20033;-73
2023/08/06 07:59:09;;;;;;;4.53;4.13;;;;;;;13.09;100.00;100396.66;5046202;28;20089;-74
2023/08/06 08:01:34;;;;;;;5.90;4.50;;;;;;;13.03;100.00;100405.09;5041946;28;20372;-74
2023/08/06 08:04:00;;;;;;;5.45;4.95;;;;;;;13.03;100.00;100405.94;5038603;28;20017;-73
2023/08/06 08:06:25;;;;;;;5.40;4.88;;;;;;;12.93;100.00;100410.19;5039724;28;20017;-73
2023/08/06 08:08:51;;;;;;;5.90;5.30;;;;;;;12.96;100.00;100404.66;5042862;28;20020;-73
2023/08/06 08:11:18;;;;;;;6.60;5.13;;;;;;;12.94;100.00;100414.56;5039534;28;20038;-73
2023/08/06 08:13:43;;;;;;;5.65;5.15;;;;;;;12.95;100.00;100419.81;5035963;28;20029;-72
2023/08/06 08:16:09;;;;;;;6.63;5.05;;;;;;;12.99;100.00;100414.25;5035890;28;20460;-73
2023/08/06 08:18:34;;;;;;;5.38;4.70;;;;;;;12.96;100.00;100418.00;5035565;28;20032;-73
2023/08/06 08:20:59;;;;;;;6.10;5.50;;;;;;;13.02;100.00;100409.56;5032996;28;20044;-74
2023/08/06 08:23:25;;;;;;;7.32;5.40;;;;;;;13.13;100.00;100430.22;5039058;28;20422;-74
2023/08/06 08:25:51;;;;;;;6.85;4.60;;;;;;;13.26;100.00;100424.94;5039571;28;20442;-73
2023/08/06 08:28:17;;;;;;;6.10;4.32;;;;;;;13.26;100.00;100428.47;5038826;28;20079;-72
2023/08/06 08:30:42;;;;;;;6.50;4.82;;;;;;;13.28;100.00;100425.66;5039623;28;20467;-74
2023/08/06 08:33:07;;;;;;;7.80;5.45;;;;;;;13.39;100.00;100428.47;5045274;28;20033;-72
2023/08/06 08:35:33;;;;;;;9.65;5.82;;;;;;;13.40;100.00;100420.34;5046993;28;20110;-74
2023/08/06 08:37:59;;;;;;;7.72;5.43;;;;;;;13.45;100.00;100439.56;5044397;28;20724;-74
2023/08/06 08:40:31;;;;;;;7.50;5.13;;;;;;;13.30;100.00;100431.78;5042097;28;20286;-77
2023/08/06 08:42:58;;;;;;;9.73;5.43;;;;;;;13.35;100.00;100432.31;5042211;28;20495;-75
2023/08/06 08:45:26;;;;;;;9.73;5.63;;;;;;;13.25;100.00;100440.13;5044302;28;20033;-75
2023/08/06 08:47:51;;;;;;;8.90;5.68;;;;;;;13.23;100.00;100434.00;5043829;28;20347;-79
2023/08/06 08:50:19;;;;;;;7.78;4.85;;;;;;;13.25;100.00;100449.94;5048165;28;20021;-74
2023/08/06 08:52:45;;;;;;;7.75;4.65;;;;;;;13.16;100.00;100440.69;5043251;28;20099;-76
2023/08/06 08:55:14;;;;;;;11.77;5.35;;;;;;;13.28;100.00;100458.59;5045219;28;20028;-77
2023/08/06 08:57:39;;;;;;;10.70;4.97;;;;;;;13.24;100.00;100457.09;5045194;28;20411;-78
2023/08/06 09:00:05;;;;;;;8.38;5.25;;;;;;;13.38;100.00;100461.50;5038365;28;20029;-86
2023/08/06 09:02:32;;;;;;;11.18;5.75;;;;;;;13.42;100.00;100453.19;5043941;28;20057;-84
2023/08/06 09:05:02;;;;;;;8.32;5.25;;;;;;;13.49;100.00;100469.63;5042684;28;20021;-79
2023/08/06 09:07:30;;;;;;;9.05;5.60;;;;;;;13.60;100.00;100483.13;5044953;28;20581;-77
2023/08/06 09:09:57;;;;;;;9.27;4.72;;;;;;;13.60;100.00;100483.13;5036583;28;20726;-80
2023/08/06 09:12:22;;;;;;;9.07;5.50;;;;;;;13.81;100.00;100475.44;5043142;28;20029;-77
2023/08/06 09:14:48;;;;;;;9.38;6.07;;;;;;;13.82;100.00;100489.66;5047243;28;20025;-78
2023/08/06 09:17:13;;;;;;;11.95;5.78;;;;;;;13.78;100.00;100483.66;5045185;28;20028;-81
2023/08/06 09:19:45;;;;;;;12.02;5.93;;;;;;;13.77;100.00;100487.31;5044042;28;20060;-77
2023/08/06 09:22:13;;;;;;;10.30;5.47;;;;;;;13.73;100.00;100477.78;5044843;28;20036;-81
2023/08/06 09:24:40;;;;;;;8.23;5.32;;;;;;;13.70;100.00;100507.41;5046566;28;20032;-78
2023/08/06 09:27:12;;;;;;;15.10;5.57;;;;;;;13.84;100.00;100506.47;5046595;28;20080;-78
2023/08/06 09:29:40;;;;;;;10.70;5.50;;;;;;;13.68;100.00;100498.66;5047152;28;20092;-76
2023/08/06 09:32:06;;;;;;;11.00;4.90;;;;;;;13.63;100.00;100519.50;5041802;28;20419;-79
2023/08/06 09:34:31;;;;;;;10.82;5.18;;;;;;;13.36;100.00;100496.34;5043765;28;20074;-78
2023/08/06 09:36:56;;;;;;;12.15;5.70;;;;;;;13.44;100.00;100514.56;5042066;28;20102;-76
2023/08/06 09:39:27;;;;;;;9.52;5.18;;;;;;;13.35;100.00;100513.34;5042102;28;20064;-76
2023/08/06 09:41:58;;;;;;;11.75;5.13;;;;;;;13.42;100.00;100522.69;5039047;28;20032;-76
2023/08/06 09:44:25;;;;;;;11.57;5.43;;;;;;;13.51;100.00;100525.69;5039928;28;20480;-79
2023/08/06 09:46:52;;;;;;;9.57;5.75;;;;;;;13.34;100.00;100535.72;5043629;28;20545;-82
2023/08/06 09:49:20;;;;;;;9.98;5.53;;;;;;;13.35;100.00;100537.41;5037875;28;20504;-73
2023/08/06 09:51:51;;;;;;;12.43;5.95;;;;;;;13.35;100.00;100540.09;5038684;28;20024;-73
2023/08/06 09:54:20;;;;;;;10.52;5.50;;;;;;;13.38;100.00;100537.22;5046005;28;20021;-73
2023/08/06 09:56:45;;;;;;;10.68;5.68;;;;;;;13.30;100.00;100544.03;5036931;28;20637;-72
2023/08/06 09:59:13;;;;;;;10.45;5.45;;;;;;;13.29;100.00;100544.97;5052481;28;20179;-69
2023/08/06 10:01:39;;;;;;;11.73;5.28;;;;;;;13.30;100.00;100550.25;5045560;28;20035;-70
2023/08/06 10:04:10;;;;;;;9.77;5.00;;;;;;;13.34;100.00;100545.53;5037810;28;20021;-69
2023/08/06 10:06:36;;;;;;;11.70;6.05;;;;;;;13.43;100.00;100543.09;5043216;28;20025;-70
2023/08/06 10:09:01;;;;;;;10.90;5.60;;;;;;;13.37;100.00;100537.31;5038902;28;20074;-70
2023/08/06 10:11:29;;;;;;;12.20;5.20;;;;;;;13.44;100.00;100558.19;5039765;28;20033;-70
2023/08/06 10:14:35;;;;;;;15.00;6.13;;;;;;;13.53;100.00;100558.50;5044788;28;20025;-69
2023/08/06 10:17:01;;;;;;;14.43;6.00;;;;;;;13.57;100.00;100552.84;5035660;28;20159;-70
2023/08/06 10:19:27;;;;;;;15.68;6.03;;;;;;;13.61;100.00;100558.84;5037893;28;20275;-69
2023/08/06 10:22:12;;;;;;;10.52;5.53;;;;;;;13.58;100.00;100553.72;5038406;28;20017;-70
2023/08/06 10:24:51;;;;;;;11.02;5.57;;;;;;;13.55;100.00;100559.28;5031347;28;20068;-69
2023/08/06 10:27:30;;;;;;;7.35;4.70;;;;;;;13.44;100.00;100555.50;5042896;28;20025;-70
2023/08/06 10:30:16;;;;;;;10.35;4.95;;;;;;;13.44;100.00;100558.19;5029480;28;20339;-71
2023/08/06 10:33:01;;;;;;;10.27;4.75;;;;;;;13.55;100.00;100569.97;5056958;28;20024;-68
2023/08/06 10:35:44;;;;;;;9.15;4.63;;;;;;;13.53;100.00;100564.72;5035016;28;20060;-69
2023/08/06 10:38:11;;;;;;;6.20;4.43;;;;;;;13.52;100.00;100565.69;5044324;28;20163;-69
2023/08/06 10:40:38;;;;;;;9.93;4.32;;;;;;;13.60;100.00;100567.84;5041283;28;20029;-69
2023/08/06 10:43:06;;;;;;;10.60;5.15;;;;;;;13.58;100.00;100562.59;5038528;28;20061;-70
2023/08/06 10:45:35;;;;;;;8.02;3.97;;;;;;;13.58;100.00;100567.06;5040603;28;20028;-69
2023/08/06 10:48:00;;;;;;;9.85;4.57;;;;;;;13.63;100.00;100570.31;5038835;28;20048;-69
2023/08/06 10:50:26;;;;;;;8.63;4.55;;;;;;;13.68;100.00;100568.19;5040072;28;20574;-69
2023/08/06 10:52:52;;;;;;;9.68;5.10;;;;;;;13.65;100.00;100576.41;5040025;28;20638;-69
2023/08/06 10:55:28;;;;;;;7.03;4.80;;;;;;;13.62;100.00;100571.25;5036905;28;20029;-70
2023/08/06 10:57:55;;;;;;;9.05;4.72;;;;;;;13.62;100.00;100573.94;5056796;28;20100;-69
2023/08/06 11:00:25;;;;;;;8.75;5.28;;;;;;;13.73;100.00;100578.56;5038495;28;20320;-69
2023/08/06 11:02:52;;;;;;;9.25;5.15;;;;;;;13.76;100.00;100579.22;5035872;28;20531;-69
2023/08/06 11:05:18;;;;;;;10.73;5.22;;;;;;;13.79;100.00;100584.34;5039017;28;20025;-69
2023/08/06 11:07:43;;;;;;;12.68;5.15;;;;;;;13.83;100.00;100585.84;5035041;28;20037;-72
2023/08/06 11:10:13;;;;;;;10.50;5.25;;;;;;;13.80;100.00;100579.88;5039150;28;20379;-70
2023/08/06 11:12:39;;;;;;;9.73;4.90;;;;;;;13.91;100.00;100583.50;5047872;28;20033;-70
2023/08/06 11:15:05;;;;;;;9.82;5.13;;;;;;;14.02;100.00;100589.94;5038464;28;20529;-69